KTWF/TWF METAR and TAF weather

Enter ICAO airport designator
Station Type Date Time Source
KTWF METAR 2020/10/20 16:53 UTC NOAA

KTWF 201653Z 27016G22KT 10SM CLR 13/02 A3014 RMK AO2 SLP182 T01280022


Station Type Date Time Source
KTWF Decoded METAR 2020/10/20 16:53 UTC NOAA

JOSLIN FLD-MAGIC VALLEY REGL, ID, United States (KTWF) 42-29N 114-29W 1266M
Oct 20, 2020 - 12:53 PM EDT / 2020.10.20 1653 UTC
Wind: from the W (270 degrees) at 18 MPH (16 KT) gusting to 25 MPH (22 KT):0
Visibility: 10 mile(s):0
Sky conditions: clear
Temperature: 55.0 F (12.8 C)
Dew Point: 36.0 F (2.2 C)
Relative Humidity: 48%
Pressure (altimeter): 30.14 in. Hg (1020 hPa)
ob: KTWF 201653Z 27016G22KT 10SM CLR 13/02 A3014 RMK AO2 SLP182 T01280022
cycle: 17

Station Type Date Time Source
KTWF TAF 2020/10/20 18:22 UTC NOAA

TAF KTWF 201720Z 2018/2118 27018G28KT P6SM SCT250
FM210300 21010KT P6SM SCT050 SCT250

Example: see airport list